Time;durP1;ratioP1;P1;durP2;ratioP2;P2;SDS_P1;SDS_P2;PMS_P1;PMS_P2;Temp;Humidity;BMP_temperature;BMP_pressure;BME280_temperature;BME280_humidity;BME280_pressure;Samples;Min_cycle;Max_cycle;Signal;HPM_P1;HPM_P2
2021/12/27 00:00:09;;;;;;;20.33;9.88;;;;;;;2.37;100.00;94486.34;5111100;27;20065;-79
2021/12/27 00:02:58;;;;;;;20.88;9.90;;;;;;;2.37;100.00;94486.34;5111142;28;20063;-79
2021/12/27 00:05:23;;;;;;;20.00;10.20;;;;;;;2.25;100.00;94484.66;5100438;28;20047;-80
2021/12/27 00:07:50;;;;;;;18.23;9.00;;;;;;;2.34;100.00;94479.06;5103034;28;20043;-79
2021/12/27 00:10:18;;;;;;;19.10;9.60;;;;;;;2.39;100.00;94473.94;5102018;28;20047;-79
2021/12/27 00:12:45;;;;;;;17.50;9.15;;;;;;;2.63;100.00;94478.84;5110777;28;20532;-79
2021/12/27 00:15:10;;;;;;;16.63;8.48;;;;;;;2.64;100.00;94483.78;5110001;28;20071;-79
2021/12/27 00:17:39;;;;;;;18.60;9.25;;;;;;;2.63;100.00;94484.03;5105142;28;20050;-78
2021/12/27 00:20:06;;;;;;;17.23;8.68;;;;;;;2.66;100.00;94483.53;5109826;28;20039;-79
2021/12/27 00:22:31;;;;;;;18.15;8.05;;;;;;;2.75;100.00;94487.28;5109035;28;20044;-79
2021/12/27 00:24:57;;;;;;;16.90;8.65;;;;;;;2.91;100.00;94489.00;5109550;28;20043;-78
2021/12/27 00:27:22;;;;;;;16.33;8.23;;;;;;;2.87;100.00;94485.31;5108081;28;20040;-79
2021/12/27 00:29:49;;;;;;;15.68;8.75;;;;;;;2.78;100.00;94484.19;5110289;28;20039;-79
2021/12/27 00:32:14;;;;;;;16.55;8.70;;;;;;;2.59;100.00;94479.34;5104714;28;20042;-77
2021/12/27 00:34:40;;;;;;;18.40;9.18;;;;;;;2.50;100.00;94480.81;5093936;28;20115;-78
2021/12/27 00:37:07;;;;;;;21.77;9.10;;;;;;;2.46;100.00;94484.91;5092745;28;20094;-79
2021/12/27 00:39:33;;;;;;;18.92;9.45;;;;;;;2.39;100.00;94481.72;5097777;28;20039;-79
2021/12/27 00:41:59;;;;;;;18.77;9.35;;;;;;;2.46;100.00;94484.13;5096306;28;20097;-79
2021/12/27 00:44:25;;;;;;;16.13;7.97;;;;;;;2.57;100.00;94480.59;5105907;28;20040;-79
2021/12/27 00:46:50;;;;;;;16.63;9.00;;;;;;;2.50;100.00;94475.63;5098972;28;20110;-79
2021/12/27 00:49:16;;;;;;;15.75;8.60;;;;;;;2.48;100.00;94472.47;5110147;28;20047;-79
2021/12/27 00:51:41;;;;;;;16.95;8.73;;;;;;;2.42;100.00;94468.25;5110097;28;20049;-80
2021/12/27 00:54:07;;;;;;;15.70;8.13;;;;;;;2.42;100.00;94468.25;5111446;28;20092;-79
2021/12/27 00:56:32;;;;;;;17.75;8.18;;;;;;;2.41;100.00;94461.47;5114502;28;20035;-79
2021/12/27 00:58:58;;;;;;;14.65;7.85;;;;;;;2.42;100.00;94470.84;5115080;28;20481;-79
2021/12/27 01:01:23;;;;;;;15.80;7.47;;;;;;;2.71;100.00;94473.22;5114225;28;20039;-78
2021/12/27 01:03:49;;;;;;;19.27;7.72;;;;;;;2.68;100.00;94471.13;5096500;28;20044;-79
2021/12/27 01:06:14;;;;;;;16.60;7.97;;;;;;;2.57;100.00;94471.03;5096756;28;20050;-79
2021/12/27 01:08:40;;;;;;;14.25;7.78;;;;;;;2.49;100.00;94466.25;5112969;28;20047;-79
2021/12/27 01:14:11;;;;;;;14.77;7.78;;;;;;;2.44;100.00;94466.19;5114247;28;20048;-79
2021/12/27 01:16:39;;;;;;;15.35;6.72;;;;;;;2.66;100.00;94470.56;5078880;28;20036;-79
2021/12/27 01:19:06;;;;;;;13.98;7.10;;;;;;;2.84;100.00;94475.41;5096144;28;20512;-78
2021/12/27 01:21:32;;;;;;;13.57;6.75;;;;;;;2.71;100.00;94481.00;5112355;28;20039;-79
2021/12/27 01:23:58;;;;;;;12.15;6.32;;;;;;;2.75;100.00;94482.09;5113957;28;20400;-79
2021/12/27 01:26:25;;;;;;;14.80;6.35;;;;;;;2.81;100.00;94477.72;5111572;28;20047;-78
2021/12/27 01:28:56;;;;;;;11.23;6.13;;;;;;;2.94;100.00;94485.94;5107242;28;20127;-79
2021/12/27 01:31:23;;;;;;;14.07;6.40;;;;;;;3.00;100.00;94478.16;5109126;28;20061;-79
2021/12/27 01:33:49;;;;;;;11.85;6.00;;;;;;;2.95;100.00;94474.47;5095659;28;20044;-79
2021/12/27 01:36:16;;;;;;;10.32;6.05;;;;;;;2.88;100.00;94476.50;5107491;28;20455;-79
2021/12/27 01:38:42;;;;;;;13.18;6.72;;;;;;;2.82;100.00;94479.31;5100808;28;20047;-79
2021/12/27 01:41:12;;;;;;;12.70;6.15;;;;;;;2.83;100.00;94463.47;5098550;28;20047;-80
2021/12/27 01:43:39;;;;;;;12.68;6.75;;;;;;;2.65;100.00;94467.19;5097922;28;20050;-79
2021/12/27 01:46:08;;;;;;;14.68;6.95;;;;;;;2.52;100.00;94473.53;5075505;28;20043;-79
2021/12/27 01:48:38;;;;;;;12.90;6.28;;;;;;;2.50;100.00;94475.63;5095608;28;20058;-79
2021/12/27 01:51:08;;;;;;;13.85;7.15;;;;;;;2.65;100.00;94471.59;5109278;28;20086;-78
2021/12/27 01:53:36;;;;;;;13.55;6.35;;;;;;;2.65;100.00;94463.81;5113080;28;20055;-80
2021/12/27 01:56:04;;;;;;;12.05;6.57;;;;;;;2.59;100.00;94474.16;5099687;28;20811;-79
2021/12/27 01:58:30;;;;;;;13.73;6.53;;;;;;;2.65;100.00;94463.81;5113148;28;20118;-79
2021/12/27 02:00:58;;;;;;;12.63;6.68;;;;;;;2.79;100.00;94462.41;5113629;28;20489;-79
2021/12/27 02:03:27;;;;;;;13.82;7.22;;;;;;;2.76;100.00;94457.69;5111532;28;20054;-79
2021/12/27 02:05:53;;;;;;;11.88;5.97;;;;;;;2.72;100.00;94456.63;5098221;28;20451;-79
2021/12/27 02:08:19;;;;;;;14.38;6.22;;;;;;;2.88;100.00;94455.72;5104419;28;20066;-80
2021/12/27 02:10:44;;;;;;;12.65;6.53;;;;;;;2.85;100.00;94461.41;5109629;28;20417;-79
2021/12/27 02:13:10;;;;;;;10.80;6.00;;;;;;;2.73;100.00;94458.16;5111764;28;20081;-79
2021/12/27 02:15:36;;;;;;;12.73;6.28;;;;;;;2.70;100.00;94463.84;5111432;28;20040;-79
2021/12/27 02:18:03;;;;;;;12.23;7.00;;;;;;;2.57;100.00;94462.41;5103421;28;20124;-79
2021/12/27 02:20:32;;;;;;;19.30;6.65;;;;;;;2.55;100.00;94454.09;5093906;28;20044;-79
2021/12/27 02:23:02;;;;;;;12.55;7.03;;;;;;;2.68;100.00;94450.34;5109296;28;20050;-79
2021/12/27 02:25:34;;;;;;;14.95;7.22;;;;;;;2.57;100.00;94454.63;5108299;28;20452;-78
2021/12/27 02:28:02;;;;;;;14.13;8.18;;;;;;;2.56;100.00;94453.84;5109275;28;20051;-79
2021/12/27 02:30:30;;;;;;;12.43;6.53;;;;;;;2.64;100.00;94446.66;5111717;28;20043;-79
2021/12/27 02:32:59;;;;;;;12.38;6.57;;;;;;;2.71;100.00;94449.84;5111442;28;20048;-79
2021/12/27 02:35:28;;;;;;;13.82;6.60;;;;;;;2.65;100.00;94450.81;5104560;28;20608;-79
2021/12/27 02:37:56;;;;;;;14.57;7.47;;;;;;;2.47;100.00;94439.75;5103341;28;20046;-80
2021/12/27 02:40:24;;;;;;;17.30;7.03;;;;;;;2.49;100.00;94448.06;5091468;28;20056;-80
2021/12/27 02:42:55;;;;;;;16.13;6.97;;;;;;;2.59;100.00;94448.16;5110988;28;20040;-79
2021/12/27 02:45:21;;;;;;;13.50;6.53;;;;;;;2.57;100.00;94445.03;5107480;28;20389;-79
2021/12/27 02:47:47;;;;;;;12.30;6.32;;;;;;;2.42;100.00;94447.47;5104938;28;20035;-80
2021/12/27 02:50:13;;;;;;;13.77;7.18;;;;;;;2.28;100.00;94441.09;5093790;28;20043;-79
2021/12/27 02:52:39;;;;;;;15.77;7.60;;;;;;;2.19;100.00;94444.09;5107957;27;20027;-79
2021/12/27 02:55:05;;;;;;;17.00;7.05;;;;;;;2.12;100.00;94437.53;5104914;27;20048;-79
2021/12/27 02:57:30;;;;;;;12.13;6.50;;;;;;;2.07;100.00;94443.47;5123478;27;20043;-79
2021/12/27 02:59:57;;;;;;;13.25;6.72;;;;;;;2.11;100.00;94444.53;5124303;27;20519;-79
2021/12/27 03:02:23;;;;;;;14.90;7.40;;;;;;;2.15;100.00;94437.06;5107488;28;20036;-80
2021/12/27 03:04:49;;;;;;;11.63;6.32;;;;;;;2.25;100.00;94443.13;5105007;28;20036;-80
2021/12/27 03:07:15;;;;;;;14.50;6.95;;;;;;;2.16;100.00;94443.81;5112605;28;20047;-79
2021/12/27 03:09:40;;;;;;;16.58;7.00;;;;;;;2.04;100.00;94442.13;5101804;28;20470;-79
2021/12/27 03:12:10;;;;;;;14.82;6.93;;;;;;;2.01;100.00;94452.19;5102242;28;20053;-80
2021/12/27 03:14:35;;;;;;;14.23;6.80;;;;;;;2.05;100.00;94448.09;5112419;28;20058;-78
2021/12/27 03:17:01;;;;;;;15.38;7.32;;;;;;;2.08;100.00;94437.22;5111937;28;20039;-80
2021/12/27 03:19:27;;;;;;;18.58;8.25;;;;;;;2.11;100.00;94441.94;5100059;28;20148;-80
2021/12/27 03:21:52;;;;;;;15.27;6.72;;;;;;;2.18;100.00;94431.38;5114187;28;20447;-80
2021/12/27 03:24:17;;;;;;;13.60;6.65;;;;;;;2.21;100.00;94428.28;5115235;28;20043;-80
2021/12/27 03:26:43;;;;;;;11.25;6.55;;;;;;;2.14;100.00;94430.28;5105544;28;20040;-80
2021/12/27 03:29:09;;;;;;;12.60;6.53;;;;;;;2.14;100.00;94431.09;5112493;28;20043;-81
2021/12/27 03:31:37;;;;;;;12.13;6.95;;;;;;;2.05;100.00;94427.34;5113167;28;20043;-81
2021/12/27 03:34:04;;;;;;;12.63;6.68;;;;;;;2.02;100.00;94433.00;5102084;28;20048;-78
2021/12/27 03:36:37;;;;;;;13.43;6.75;;;;;;;2.12;100.00;94427.94;5101096;28;20750;-78
2021/12/27 03:39:08;;;;;;;12.50;6.65;;;;;;;2.10;100.00;94424.00;5095944;28;20502;-78
2021/12/27 03:41:34;;;;;;;16.63;7.50;;;;;;;2.01;100.00;94428.84;5110663;28;20133;-78
2021/12/27 03:44:00;;;;;;;14.95;6.90;;;;;;;2.12;100.00;94427.16;5111754;28;20051;-78
2021/12/27 03:46:25;;;;;;;13.63;6.78;;;;;;;2.12;100.00;94417.56;5104241;28;20451;-78
2021/12/27 03:48:51;;;;;;;16.95;7.78;;;;;;;1.98;100.00;94431.91;5092292;28;20044;-78
2021/12/27 03:51:17;;;;;;;13.48;6.70;;;;;;;2.20;100.00;94430.09;5097516;28;20042;-78
2021/12/27 03:53:43;;;;;;;11.98;5.80;;;;;;;2.43;100.00;94423.09;5091728;28;20047;-80
2021/12/27 03:56:08;;;;;;;9.77;5.60;;;;;;;2.24;100.00;94420.81;5107505;28;20040;-80
2021/12/27 03:58:47;;;;;;;11.45;6.07;;;;;;;2.24;100.00;94426.00;5112673;28;20043;-81
2021/12/27 04:01:16;;;;;;;12.68;6.53;;;;;;;2.15;100.00;94422.25;5106679;28;20513;-80
2021/12/27 04:03:44;;;;;;;11.18;5.78;;;;;;;2.24;100.00;94423.41;5114731;28;20451;-81
2021/12/27 04:06:11;;;;;;;9.98;5.30;;;;;;;2.29;100.00;94419.31;5114023;28;20043;-81
2021/12/27 04:08:37;;;;;;;13.48;6.30;;;;;;;2.21;100.00;94410.91;5112836;28;20032;-79
2021/12/27 04:11:02;;;;;;;13.68;6.70;;;;;;;2.01;100.00;94415.88;5112911;28;20035;-80
2021/12/27 04:13:28;;;;;;;11.98;6.18;;;;;;;2.01;100.00;94415.88;5096647;28;20050;-80
2021/12/27 04:15:54;;;;;;;12.57;6.03;;;;;;;2.02;100.00;94412.25;5113729;28;20090;-79
2021/12/27 04:18:20;;;;;;;13.07;6.25;;;;;;;2.04;100.00;94425.75;5101897;28;20040;-80
2021/12/27 04:20:45;;;;;;;14.57;7.15;;;;;;;2.08;100.00;94417.28;5110487;27;20036;-80
2021/12/27 04:23:12;;;;;;;15.73;6.82;;;;;;;2.11;100.00;94421.16;5113842;28;20039;-81
2021/12/27 04:25:37;;;;;;;14.70;7.38;;;;;;;1.99;100.00;94412.75;5113558;28;20040;-82
2021/12/27 04:28:03;;;;;;;14.25;7.05;;;;;;;1.97;100.00;94409.59;5095621;28;20790;-80
2021/12/27 04:30:29;;;;;;;13.23;6.40;;;;;;;2.15;100.00;94413.69;5113746;28;20044;-80
2021/12/27 04:32:54;;;;;;;16.42;7.50;;;;;;;2.05;100.00;94416.94;5113632;28;20092;-81
2021/12/27 04:35:21;;;;;;;14.47;7.00;;;;;;;2.01;100.00;94415.88;5107901;28;20036;-80
2021/12/27 04:37:48;;;;;;;13.95;6.35;;;;;;;2.05;100.00;94427.34;5106790;28;20036;-80
2021/12/27 04:40:16;;;;;;;13.73;6.38;;;;;;;2.00;100.00;94416.91;5093049;28;20055;-81
2021/12/27 04:42:45;;;;;;;13.07;6.15;;;;;;;1.87;100.00;94421.44;5106086;28;20048;-80
2021/12/27 04:45:14;;;;;;;13.30;6.43;;;;;;;1.90;100.00;94431.31;5104726;28;20043;-80
2021/12/27 04:47:41;;;;;;;13.90;6.25;;;;;;;1.84;100.00;94421.91;5109894;28;20425;-80
2021/12/27 04:50:08;;;;;;;12.50;6.30;;;;;;;1.98;100.00;94427.50;5113597;28;20040;-81
2021/12/27 04:52:33;;;;;;;12.35;5.85;;;;;;;1.88;100.00;94428.19;5101942;28;20036;-80
2021/12/27 04:54:59;;;;;;;10.52;5.25;;;;;;;1.80;100.00;94420.81;5095473;28;20044;-80
2021/12/27 04:57:24;;;;;;;9.55;5.30;;;;;;;1.69;100.00;94419.13;5098071;28;20205;-81
2021/12/27 04:59:50;;;;;;;10.95;5.32;;;;;;;1.72;100.00;94423.81;5113668;28;20047;-81
2021/12/27 05:02:17;;;;;;;10.70;5.28;;;;;;;1.70;100.00;94415.50;5113463;28;20040;-81
2021/12/27 05:04:42;;;;;;;9.57;4.93;;;;;;;1.68;100.00;94422.72;5110669;28;20378;-81
2021/12/27 05:07:08;;;;;;;12.40;5.05;;;;;;;1.70;100.00;94418.09;5108202;28;20119;-80
2021/12/27 05:09:33;;;;;;;10.00;5.40;;;;;;;1.74;100.00;94421.78;5088953;28;20043;-80
2021/12/27 05:11:59;;;;;;;8.93;4.38;;;;;;;1.66;100.00;94415.19;5113174;28;20043;-80
2021/12/27 05:14:24;;;;;;;10.00;4.63;;;;;;;1.59;100.00;94419.00;5111544;28;20050;-81
2021/12/27 05:16:50;;;;;;;8.65;4.57;;;;;;;1.70;100.00;94415.50;5107349;28;20044;-80
2021/12/27 05:19:15;;;;;;;7.90;3.90;;;;;;;1.79;100.00;94414.06;5100479;28;20040;-80
2021/12/27 05:21:41;;;;;;;8.13;4.25;;;;;;;1.92;100.00;94425.09;5107776;28;20118;-80
2021/12/27 05:24:07;;;;;;;6.60;3.78;;;;;;;1.83;100.00;94415.16;5106453;28;20490;-81
2021/12/27 05:26:32;;;;;;;10.85;4.22;;;;;;;1.70;100.00;94421.47;5102028;28;20047;-81
2021/12/27 05:28:58;;;;;;;9.98;4.82;;;;;;;1.65;100.00;94407.66;5112601;28;20040;-80
2021/12/27 05:31:24;;;;;;;9.75;5.32;;;;;;;1.61;100.00;94411.75;5113633;28;20035;-80
2021/12/27 05:33:49;;;;;;;11.50;5.07;;;;;;;1.62;100.00;94415.91;5102364;28;20062;-80
2021/12/27 05:36:15;;;;;;;9.00;4.97;;;;;;;1.55;100.00;94409.09;5107949;28;20039;-80
2021/12/27 05:38:40;;;;;;;8.05;4.47;;;;;;;1.58;100.00;94412.22;5105802;28;20044;-81
2021/12/27 05:41:06;;;;;;;8.80;3.83;;;;;;;1.69;100.00;94413.94;5117247;28;20050;-80
2021/12/27 05:43:32;;;;;;;7.00;3.88;;;;;;;1.61;100.00;94411.75;5112118;28;20032;-81
2021/12/27 05:45:58;;;;;;;6.05;3.63;;;;;;;1.63;100.00;94413.06;5107603;28;20127;-79
2021/12/27 05:48:23;;;;;;;6.07;3.45;;;;;;;1.56;100.00;94404.69;5109055;28;20043;-80
2021/12/27 05:50:49;;;;;;;7.47;4.07;;;;;;;1.73;100.00;94415.03;5106170;28;20112;-79
2021/12/27 05:53:16;;;;;;;6.10;3.60;;;;;;;1.66;100.00;94414.41;5113049;28;20579;-80
2021/12/27 05:55:43;;;;;;;6.57;3.53;;;;;;;1.70;100.00;94416.28;5105820;28;20038;-80
2021/12/27 05:58:09;;;;;;;6.97;3.65;;;;;;;1.82;100.00;94403.19;5116588;28;20062;-80
2021/12/27 06:00:35;;;;;;;5.38;3.38;;;;;;;1.92;100.00;94404.34;5116639;28;20040;-80
2021/12/27 06:03:01;;;;;;;6.22;3.78;;;;;;;1.77;100.00;94400.56;5114970;28;20044;-80
2021/12/27 06:05:27;;;;;;;6.90;3.53;;;;;;;1.49;100.00;94393.69;5097274;28;20040;-80
2021/12/27 06:07:52;;;;;;;10.15;4.25;;;;;;;1.26;100.00;94394.69;5114213;28;20505;-80
2021/12/27 06:10:18;;;;;;;7.15;4.15;;;;;;;1.27;100.00;94399.63;5098994;28;20049;-80
2021/12/27 06:12:45;;;;;;;6.90;3.45;;;;;;;1.41;100.00;94389.72;5099533;28;20032;-80
2021/12/27 06:15:12;;;;;;;7.20;3.88;;;;;;;1.35;100.00;94398.44;5116244;28;20052;-80
2021/12/27 06:17:38;;;;;;;7.45;3.60;;;;;;;1.30;100.00;94391.38;5096475;28;20454;-79
2021/12/27 06:20:06;;;;;;;28.27;4.40;;;;;;;1.16;100.00;94390.91;5114195;28;20035;-79
2021/12/27 06:22:33;;;;;;;10.80;4.13;;;;;;;1.09;100.00;94385.09;5111782;28;20859;-79
2021/12/27 06:25:03;;;;;;;6.85;3.70;;;;;;;1.15;100.00;94386.78;5115223;27;20039;-80
2021/12/27 06:27:31;;;;;;;14.38;4.30;;;;;;;1.19;100.00;94393.06;5106960;28;20044;-80
2021/12/27 06:29:57;;;;;;;7.93;3.60;;;;;;;1.25;100.00;94387.94;5109378;28;20044;-80
2021/12/27 06:32:23;;;;;;;5.93;3.38;;;;;;;1.18;100.00;94388.13;5107514;28;20066;-81
2021/12/27 06:34:48;;;;;;;6.95;3.67;;;;;;;1.06;100.00;94385.59;5087832;28;20505;-79
2021/12/27 06:37:14;;;;;;;6.03;3.60;;;;;;;1.10;100.00;94381.50;5113825;28;20035;-79
2021/12/27 06:39:39;;;;;;;5.80;3.50;;;;;;;1.21;100.00;94385.81;5109792;28;20032;-80
2021/12/27 06:42:06;;;;;;;5.60;3.17;;;;;;;1.19;100.00;94380.09;5113707;27;20492;-79
2021/12/27 06:44:32;;;;;;;4.43;2.95;;;;;;;1.19;100.00;94384.47;5127391;27;20059;-80
2021/12/27 06:46:59;;;;;;;5.50;3.28;;;;;;;1.15;100.00;94388.56;5110033;28;20075;-81
2021/12/27 06:49:28;;;;;;;6.47;3.80;;;;;;;1.04;100.00;94388.41;5076966;28;20039;-79
2021/12/27 06:51:54;;;;;;;8.95;3.78;;;;;;;1.05;100.00;94381.44;5095332;28;20405;-80
2021/12/27 06:54:20;;;;;;;6.28;3.55;;;;;;;1.04;100.00;94382.47;5108154;28;20051;-79
2021/12/27 06:56:46;;;;;;;6.07;3.33;;;;;;;1.02;100.00;94379.31;5113133;28;20124;-80
2021/12/27 06:59:12;;;;;;;6.05;2.95;;;;;;;1.13;100.00;94386.22;5114952;28;20040;-80
2021/12/27 07:01:37;;;;;;;6.28;3.10;;;;;;;1.25;100.00;94387.94;5115862;28;20566;-80
2021/12/27 07:04:03;;;;;;;6.53;3.28;;;;;;;1.29;100.00;94389.81;5112238;28;20043;-80
2021/12/27 07:06:29;;;;;;;7.30;2.75;;;;;;;1.13;100.00;94391.38;5108874;28;20044;-80
2021/12/27 07:08:54;;;;;;;5.20;2.80;;;;;;;1.10;100.00;94396.28;5110407;28;20088;-80
2021/12/27 07:11:20;;;;;;;7.30;3.00;;;;;;;1.04;100.00;94393.59;5102345;28;20104;-80
2021/12/27 07:13:45;;;;;;;6.28;3.10;;;;;;;1.08;100.00;94393.94;5115542;28;20050;-80
2021/12/27 07:16:11;;;;;;;5.75;3.33;;;;;;;0.96;100.00;94400.97;5109050;28;20040;-79
2021/12/27 07:18:36;;;;;;;7.40;3.53;;;;;;;0.97;100.00;94400.75;5103066;28;20906;-80
2021/12/27 07:21:02;;;;;;;5.72;3.20;;;;;;;1.06;100.00;94395.94;5094336;28;20040;-80
2021/12/27 07:23:28;;;;;;;7.13;3.63;;;;;;;1.08;100.00;94388.75;5114203;28;20050;-80
2021/12/27 07:25:54;;;;;;;7.47;3.38;;;;;;;1.18;100.00;94378.53;5105881;28;20513;-80
2021/12/27 07:28:19;;;;;;;5.95;3.20;;;;;;;1.18;100.00;94383.69;5115327;28;20046;-80
2021/12/27 07:30:45;;;;;;;6.47;3.25;;;;;;;1.17;100.00;94392.50;5115776;28;20442;-80
2021/12/27 07:33:11;;;;;;;5.47;3.08;;;;;;;1.20;100.00;94392.00;5108354;28;20098;-80
2021/12/27 07:35:36;;;;;;;6.63;3.05;;;;;;;1.16;100.00;94380.53;5114180;28;20043;-80
2021/12/27 07:38:03;;;;;;;6.10;3.58;;;;;;;1.08;100.00;94378.38;5111149;28;20043;-80
2021/12/27 07:40:29;;;;;;;12.00;3.33;;;;;;;1.05;100.00;94389.22;5102555;28;20097;-80
2021/12/27 07:42:54;;;;;;;4.60;2.60;;;;;;;1.29;100.00;94386.44;5097164;28;20052;-80
2021/12/27 07:45:20;;;;;;;8.98;3.40;;;;;;;1.27;100.00;94385.91;5087301;28;20057;-80
2021/12/27 07:47:46;;;;;;;5.43;2.88;;;;;;;1.44;100.00;94381.47;5092033;28;20063;-79
2021/12/27 07:50:13;;;;;;;5.53;2.90;;;;;;;1.49;100.00;94378.91;5101935;28;20048;-79
2021/12/27 07:52:39;;;;;;;6.32;2.72;;;;;;;1.32;100.00;94383.34;5106562;28;20089;-80
2021/12/27 07:55:06;;;;;;;6.65;3.13;;;;;;;1.32;100.00;94378.19;5112761;28;20466;-79
2021/12/27 07:57:31;;;;;;;9.30;3.88;;;;;;;1.17;100.00;94366.56;5111124;28;20040;-80
2021/12/27 07:59:57;;;;;;;9.60;4.55;;;;;;;1.28;100.00;94382.25;5115057;28;20401;-80
2021/12/27 08:02:22;;;;;;;9.35;4.30;;;;;;;1.35;100.00;94377.69;5114207;28;20040;-79
2021/12/27 08:04:48;;;;;;;12.25;4.40;;;;;;;1.42;100.00;94374.94;5112068;28;20031;-80
2021/12/27 08:07:13;;;;;;;12.48;4.47;;;;;;;1.49;100.00;94365.97;5107274;28;20044;-80
2021/12/27 08:09:39;;;;;;;9.23;3.95;;;;;;;1.61;100.00;94362.47;5104486;28;20500;-79
2021/12/27 08:12:09;;;;;;;7.32;3.97;;;;;;;1.73;100.00;94363.16;5115045;28;20048;-80
2021/12/27 08:14:35;;;;;;;11.98;4.07;;;;;;;1.80;100.00;94363.75;5111841;28;20040;-80
2021/12/27 08:17:00;;;;;;;10.20;3.78;;;;;;;1.82;100.00;94364.28;5114722;28;20253;-81
2021/12/27 08:19:26;;;;;;;7.80;3.50;;;;;;;1.89;100.00;94367.47;5118639;27;20046;-80
2021/12/27 08:21:51;;;;;;;8.98;3.40;;;;;;;1.94;100.00;94363.38;5106015;27;20477;-80
2021/12/27 08:24:17;;;;;;;8.77;3.30;;;;;;;2.02;100.00;94365.53;5102004;28;20089;-80
2021/12/27 08:26:42;;;;;;;7.43;3.55;;;;;;;2.02;100.00;94370.72;5099113;28;20047;-80
2021/12/27 08:29:10;;;;;;;14.07;3.95;;;;;;;1.98;100.00;94364.47;5109734;27;20709;-80
2021/12/27 08:31:35;;;;;;;10.68;4.00;;;;;;;1.89;100.00;94364.88;5106629;28;20032;-80
2021/12/27 08:34:01;;;;;;;14.73;4.13;;;;;;;1.96;100.00;94361.34;5099659;28;20040;-81
2021/12/27 08:36:26;;;;;;;11.05;4.80;;;;;;;2.00;100.00;94357.22;5097148;28;20835;-80
2021/12/27 08:38:53;;;;;;;10.50;4.90;;;;;;;2.03;100.00;94367.13;5105293;28;20052;-80
2021/12/27 08:41:19;;;;;;;14.73;5.70;;;;;;;2.09;100.00;94360.94;5114176;27;20493;-80
2021/12/27 08:43:45;;;;;;;19.52;5.50;;;;;;;2.17;100.00;94363.13;5112534;28;20035;-80
2021/12/27 08:46:11;;;;;;;20.10;6.22;;;;;;;2.18;100.00;94359.47;5101256;28;20512;-80
2021/12/27 08:48:37;;;;;;;12.60;6.00;;;;;;;2.25;100.00;94356.69;5094556;28;20055;-80
2021/12/27 08:51:03;;;;;;;10.05;5.40;;;;;;;2.27;100.00;94348.66;5107733;28;20047;-78
2021/12/27 08:53:29;;;;;;;16.45;6.40;;;;;;;2.33;100.00;94350.25;5096246;28;20052;-77
2021/12/27 08:55:55;;;;;;;13.98;6.80;;;;;;;2.35;100.00;94353.41;5104848;28;20069;-78
2021/12/27 08:58:20;;;;;;;13.95;6.20;;;;;;;2.38;100.00;94348.50;5106487;28;20096;-78
2021/12/27 09:00:46;;;;;;;14.70;7.35;;;;;;;2.46;100.00;94342.09;5107491;28;20767;-78
2021/12/27 09:03:12;;;;;;;21.05;7.65;;;;;;;2.52;100.00;94343.69;5108370;28;20046;-80
2021/12/27 09:05:39;;;;;;;19.27;7.90;;;;;;;2.56;100.00;94349.97;5101248;28;20056;-76
2021/12/27 09:08:05;;;;;;;16.95;7.95;;;;;;;2.71;100.00;94351.91;5095431;28;20300;-78
2021/12/27 09:10:31;;;;;;;20.50;7.25;;;;;;;2.86;100.00;94343.44;5109794;28;20032;-78
2021/12/27 09:12:56;;;;;;;14.93;6.82;;;;;;;2.87;100.00;94329.41;5104060;28;20153;-76
2021/12/27 09:15:22;;;;;;;13.88;6.57;;;;;;;2.89;100.00;94345.53;5113449;28;20059;-74
2021/12/27 09:17:48;;;;;;;14.88;6.28;;;;;;;3.17;100.00;94333.25;5109862;28;20428;-78
2021/12/27 09:20:13;;;;;;;14.07;6.55;;;;;;;3.17;100.00;94333.25;5114360;28;20055;-78
2021/12/27 09:22:41;;;;;;;13.23;6.30;;;;;;;3.15;100.00;94335.31;5121768;27;20091;-77
2021/12/27 09:25:07;;;;;;;13.52;6.00;;;;;;;3.24;100.00;94333.78;5122276;27;20040;-77
2021/12/27 09:27:33;;;;;;;12.75;6.18;;;;;;;3.29;100.00;94331.25;5110985;28;20048;-77
2021/12/27 09:29:59;;;;;;;13.98;5.60;;;;;;;3.62;100.00;94324.09;5105597;28;20489;-77
2021/12/27 09:32:24;;;;;;;12.23;5.22;;;;;;;3.69;100.00;94313.44;5121187;27;20042;-76
2021/12/27 09:34:50;;;;;;;10.50;5.00;;;;;;;3.57;100.00;94311.06;5118274;27;20047;-77
2021/12/27 09:37:16;;;;;;;10.23;5.22;;;;;;;3.62;100.00;94305.91;5117263;28;20046;-78
2021/12/27 09:39:41;;;;;;;9.05;4.60;;;;;;;3.76;100.00;94305.41;5102827;28;20031;-79
2021/12/27 09:42:07;;;;;;;9.80;4.97;;;;;;;3.92;100.00;94301.84;5103305;28;20876;-79
2021/12/27 09:44:33;;;;;;;7.20;4.57;;;;;;;4.13;100.00;94317.50;5100645;28;20093;-78
2021/12/27 09:46:58;;;;;;;13.50;5.18;;;;;;;4.21;100.00;94314.38;5101855;28;20044;-80
2021/12/27 09:49:29;;;;;;;9.98;4.10;;;;;;;4.50;100.00;94308.69;5103243;28;20111;-78
2021/12/27 09:51:58;;;;;;;9.48;4.43;;;;;;;5.59;100.00;94304.84;5104102;28;20047;-80
2021/12/27 09:54:28;;;;;;;8.43;3.80;;;;;;;5.80;100.00;94299.53;5113265;28;20040;-79
2021/12/27 09:56:53;;;;;;;5.97;3.60;;;;;;;7.35;100.00;94305.19;5106557;28;20044;-79
2021/12/27 09:59:20;;;;;;;5.70;2.83;;;;;;;7.37;99.91;94297.06;5115602;28;20096;-79
2021/12/27 10:01:46;;;;;;;6.85;2.92;;;;;;;6.55;100.00;94303.81;5109390;28;20036;-79
2021/12/27 10:04:12;;;;;;;8.02;3.10;;;;;;;6.16;100.00;94291.53;5114552;28;20066;-79
2021/12/27 10:06:37;;;;;;;8.55;2.95;;;;;;;8.44;96.19;94281.84;5099882;28;20044;-78
2021/12/27 10:09:05;;;;;;;7.95;2.95;;;;;;;9.65;88.31;94280.28;5110474;28;20036;-81
2021/12/27 10:11:34;;;;;;;4.05;2.30;;;;;;;10.03;85.96;94280.84;5109666;28;20558;-77
2021/12/27 10:14:12;;;;;;;6.35;2.72;;;;;;;10.23;83.72;94284.09;5112261;28;20112;-78
2021/12/27 10:16:40;;;;;;;3.65;2.20;;;;;;;10.75;84.83;94279.25;5115118;28;20093;-78
2021/12/27 10:19:07;;;;;;;3.35;2.10;;;;;;;10.50;80.14;94267.47;5111126;27;20699;-81
2021/12/27 10:21:33;;;;;;;7.32;2.75;;;;;;;11.84;79.79;94274.59;5097088;28;20059;-79
2021/12/27 10:24:16;;;;;;;7.60;2.50;;;;;;;12.83;76.14;94275.91;5117834;28;20047;-79
2021/12/27 10:26:43;;;;;;;3.85;2.08;;;;;;;12.97;71.31;94276.50;5095943;28;20031;-78
2021/12/27 10:29:26;;;;;;;4.75;2.03;;;;;;;12.46;73.47;94272.81;5106581;28;20051;-78
2021/12/27 10:31:57;;;;;;;5.28;2.00;;;;;;;10.95;79.48;94281.66;5097848;28;20062;-77
2021/12/27 10:34:32;;;;;;;3.50;1.92;;;;;;;10.27;83.95;94279.81;5088246;28;20044;-77
2021/12/27 10:37:06;;;;;;;4.38;2.10;;;;;;;10.36;83.48;94277.28;5113688;28;20585;-79
2021/12/27 10:39:42;;;;;;;;;;;;;;;9.97;85.92;94276.75;5109724;28;20039;-81
2021/12/27 10:42:09;;;;;;;3.22;2.05;;;;;;;9.77;86.80;94270.09;5111739;28;19924;-79
2021/12/27 10:44:36;;;;;;;6.45;2.20;;;;;;;10.45;82.11;94254.44;5112879;28;20052;-80
2021/12/27 10:47:03;;;;;;;3.95;2.25;;;;;;;10.98;82.77;94270.56;5111433;28;20050;-81
2021/12/27 10:49:47;;;;;;;2.88;2.00;;;;;;;10.41;81.68;94261.38;5095746;28;20029;-79
2021/12/27 10:52:13;;;;;;;3.85;2.20;;;;;;;10.78;82.65;94262.09;5113154;27;20082;-79
2021/12/27 10:54:38;;;;;;;3.65;2.10;;;;;;;12.35;76.86;94253.13;5106711;27;20036;-79
2021/12/27 10:57:04;;;;;;;6.25;2.25;;;;;;;13.38;73.14;94247.94;5104175;28;20050;-79
2021/12/27 10:59:31;;;;;;;4.95;2.50;;;;;;;13.85;70.92;94233.88;5116016;27;20550;-80
2021/12/27 11:02:09;;;;;;;3.67;2.10;;;;;;;14.68;69.90;94240.25;5116917;27;20497;-79
2021/12/27 11:04:36;;;;;;;5.28;2.15;;;;;;;15.17;65.77;94238.81;5113513;27;20036;-80
2021/12/27 11:07:03;;;;;;;4.95;2.40;;;;;;;14.50;67.13;94220.31;5112135;28;20039;-79
2021/12/27 11:09:29;;;;;;;4.80;2.30;;;;;;;13.05;70.50;94223.97;5100806;28;20101;-79
2021/12/27 11:11:55;;;;;;;5.03;2.90;;;;;;;12.96;73.60;94222.13;5107945;28;20044;-80
2021/12/27 11:14:21;;;;;;;5.10;2.85;;;;;;;12.41;72.15;94222.84;5104739;27;20080;-77
2021/12/27 11:16:46;;;;;;;5.45;3.35;;;;;;;13.92;69.75;94218.28;5105923;27;20042;-76
2021/12/27 11:19:12;;;;;;;5.53;3.00;;;;;;;14.07;69.58;94213.50;5103143;28;20091;-76
2021/12/27 11:21:42;;;;;;;4.90;2.92;;;;;;;15.77;65.14;94200.16;5104047;28;20040;-78
2021/12/27 11:24:08;;;;;;;4.40;3.00;;;;;;;15.17;63.41;94209.66;5113407;28;20066;-79
2021/12/27 11:26:37;;;;;;;6.90;3.45;;;;;;;15.71;62.13;94193.53;5105627;28;20036;-77
2021/12/27 11:29:17;;;;;;;5.20;3.20;;;;;;;15.60;64.79;94184.47;5111116;28;20057;-77